createdAt,value
2023-08-15T00:02:52.318Z,19.55
2023-08-15T00:05:55.129Z,19.58
2023-08-15T00:08:59.569Z,19.58
2023-08-15T00:12:02.393Z,19.46
2023-08-15T00:15:05.350Z,19.44
2023-08-15T00:18:08.358Z,19.39
2023-08-15T00:21:10.981Z,19.33
2023-08-15T00:24:13.838Z,19.32
2023-08-15T00:27:16.464Z,19.43
2023-08-15T00:30:19.103Z,19.35
2023-08-15T00:33:21.825Z,19.44
2023-08-15T00:36:24.362Z,19.42
2023-08-15T00:39:28.045Z,19.38
2023-08-15T00:42:32.034Z,19.38
2023-08-15T00:45:38.829Z,19.35
2023-08-15T00:48:41.561Z,19.30
2023-08-15T00:51:44.141Z,19.34
2023-08-15T00:54:51.595Z,19.30
2023-08-15T00:57:54.369Z,19.33
2023-08-15T01:00:57.556Z,19.26
2023-08-15T01:04:00.488Z,19.16
2023-08-15T01:07:03.081Z,19.18
2023-08-15T01:10:06.526Z,19.05
2023-08-15T01:13:36.555Z,19.04
2023-08-15T01:16:45.339Z,19.06
2023-08-15T01:19:50.887Z,19.07
2023-08-15T01:22:54.640Z,18.96
2023-08-15T01:25:58.114Z,18.96
2023-08-15T01:29:00.623Z,18.96
2023-08-15T01:32:37.038Z,19.03
2023-08-15T01:35:56.860Z,19.02
2023-08-15T01:39:05.222Z,19.03
2023-08-15T01:42:09.206Z,19.03
2023-08-15T01:45:13.041Z,19.00
2023-08-15T01:48:16.286Z,18.92
2023-08-15T01:51:18.810Z,18.90
2023-08-15T01:54:21.639Z,18.87
2023-08-15T01:57:24.167Z,18.86
2023-08-15T02:00:26.764Z,18.87
2023-08-15T02:03:29.597Z,18.81
2023-08-15T02:06:32.158Z,18.73
2023-08-15T02:09:34.724Z,18.77
2023-08-15T02:12:37.276Z,18.71
2023-08-15T02:15:39.740Z,18.71
2023-08-15T02:18:42.549Z,18.75
2023-08-15T02:21:46.139Z,18.74
2023-08-15T02:24:48.718Z,18.76
2023-08-15T02:27:51.318Z,18.78
2023-08-15T02:30:54.735Z,18.81
2023-08-15T02:33:57.566Z,18.79
2023-08-15T02:37:00.085Z,18.68
2023-08-15T02:40:02.686Z,18.65
2023-08-15T02:43:05.247Z,18.58
2023-08-15T02:46:07.770Z,18.51
2023-08-15T02:49:10.271Z,18.57
2023-08-15T02:52:12.840Z,18.50
2023-08-15T02:55:15.363Z,18.44
2023-08-15T02:58:18.550Z,18.47
2023-08-15T03:01:21.197Z,18.55
2023-08-15T03:04:23.941Z,18.51
2023-08-15T03:07:26.525Z,18.45
2023-08-15T03:10:29.026Z,18.51
2023-08-15T03:13:31.665Z,18.47
2023-08-15T03:16:35.430Z,18.44
2023-08-15T03:19:38.932Z,18.36
2023-08-15T03:22:44.392Z,18.32
2023-08-15T03:26:03.888Z,18.32
2023-08-15T03:29:09.890Z,18.22
2023-08-15T03:32:12.788Z,18.20
2023-08-15T03:35:15.492Z,18.31
2023-08-15T03:38:19.741Z,18.34
2023-08-15T03:41:23.998Z,18.35
2023-08-15T03:44:26.476Z,18.36
2023-08-15T03:47:29.017Z,18.37
2023-08-15T03:50:35.549Z,18.39
2023-08-15T03:53:38.091Z,18.42
2023-08-15T03:56:41.017Z,18.51
2023-08-15T03:59:43.525Z,18.65
2023-08-15T04:02:46.666Z,18.74
2023-08-15T04:05:49.750Z,18.80
2023-08-15T04:08:52.337Z,18.89
2023-08-15T04:11:54.842Z,18.94
2023-08-15T04:14:57.446Z,19.04
2023-08-15T04:18:00.090Z,19.05
2023-08-15T04:21:02.725Z,19.10
2023-08-15T04:24:05.491Z,19.19
2023-08-15T04:27:08.594Z,19.24
2023-08-15T04:30:11.190Z,19.26
2023-08-15T04:33:14.006Z,19.31
2023-08-15T04:36:16.594Z,19.39
2023-08-15T04:39:19.567Z,19.43
2023-08-15T04:42:22.363Z,19.48
2023-08-15T04:45:24.998Z,19.50
2023-08-15T04:48:27.828Z,19.57
2023-08-15T04:51:30.659Z,19.70
2023-08-15T04:54:33.179Z,19.80
2023-08-15T04:57:35.733Z,19.94
2023-08-15T05:00:38.566Z,20.07
2023-08-15T05:03:41.875Z,20.18
2023-08-15T05:06:44.341Z,20.26
2023-08-15T05:09:47.787Z,20.38
2023-08-15T05:12:50.727Z,20.46
2023-08-15T05:15:55.671Z,20.53
2023-08-15T05:18:58.440Z,20.58
2023-08-15T05:22:01.311Z,20.62
2023-08-15T05:25:04.257Z,20.68
2023-08-15T05:28:09.721Z,20.75
2023-08-15T05:31:12.351Z,20.87
2023-08-15T05:34:14.979Z,20.95
2023-08-15T05:37:17.658Z,21.11
2023-08-15T05:40:21.739Z,21.23
2023-08-15T05:43:24.444Z,21.47
2023-08-15T05:46:28.252Z,21.62
2023-08-15T05:49:30.861Z,21.74
2023-08-15T05:52:33.905Z,21.82
2023-08-15T05:55:36.375Z,21.91
2023-08-15T05:58:38.897Z,22.00
2023-08-15T06:01:41.526Z,22.10
2023-08-15T06:04:44.038Z,22.17
2023-08-15T06:07:46.623Z,22.26
2023-08-15T06:10:49.302Z,22.32
2023-08-15T06:13:51.835Z,22.47
2023-08-15T06:16:54.494Z,22.57
2023-08-15T06:19:57.025Z,22.58
2023-08-15T06:22:59.705Z,22.81
2023-08-15T06:26:02.270Z,22.87
2023-08-15T06:29:06.206Z,22.91
2023-08-15T06:32:10.482Z,22.99
2023-08-15T06:35:13.237Z,23.08
2023-08-15T06:38:15.734Z,23.12
2023-08-15T06:41:18.603Z,23.27
2023-08-15T06:44:22.311Z,23.33
2023-08-15T06:47:24.839Z,23.43
2023-08-15T06:50:27.524Z,23.51
2023-08-15T06:53:31.469Z,23.61
2023-08-15T06:56:33.989Z,23.67
2023-08-15T06:59:36.954Z,23.69
2023-08-15T07:02:40.728Z,23.75
2023-08-15T07:05:44.479Z,24.01
2023-08-15T07:08:47.524Z,24.13
2023-08-15T07:11:50.113Z,24.30
2023-08-15T07:14:52.623Z,24.35
2023-08-15T07:17:55.362Z,24.57
2023-08-15T07:20:58.035Z,24.73
2023-08-15T07:24:01.675Z,24.84
2023-08-15T07:27:04.190Z,24.91
2023-08-15T07:30:07.478Z,24.95
2023-08-15T07:33:10.261Z,24.94
2023-08-15T07:36:14.350Z,24.97
2023-08-15T07:39:17.206Z,25.03
2023-08-15T07:42:20.096Z,25.25
2023-08-15T07:45:23.531Z,25.37
2023-08-15T07:48:25.985Z,25.45
2023-08-15T07:51:29.094Z,25.63
2023-08-15T07:54:31.726Z,25.85
2023-08-15T07:57:34.281Z,25.99
2023-08-15T08:00:38.036Z,26.13
2023-08-15T08:03:43.690Z,26.31
2023-08-15T08:06:46.785Z,26.46
2023-08-15T08:09:49.301Z,26.66
2023-08-15T08:12:51.866Z,26.78
2023-08-15T08:15:54.955Z,26.87
2023-08-15T08:18:57.508Z,26.96
2023-08-15T08:22:00.052Z,26.89
2023-08-15T08:25:28.653Z,26.96
2023-08-15T08:28:32.212Z,27.17
2023-08-15T08:31:34.687Z,27.18
2023-08-15T08:34:37.302Z,27.41
2023-08-15T08:37:40.055Z,27.58
2023-08-15T08:40:43.325Z,27.62
2023-08-15T08:43:45.922Z,27.61
2023-08-15T08:46:48.718Z,27.71
2023-08-15T08:49:53.782Z,27.73
2023-08-15T08:52:56.531Z,27.81
2023-08-15T08:55:59.292Z,27.96
2023-08-15T08:59:06.454Z,27.94
2023-08-15T09:02:15.423Z,28.17
2023-08-15T09:05:18.158Z,28.35
2023-08-15T09:08:20.648Z,28.37
2023-08-15T09:11:23.096Z,28.45
2023-08-15T09:14:25.558Z,28.35
2023-08-15T09:17:28.335Z,28.57
2023-08-15T09:20:30.939Z,28.45
2023-08-15T09:23:33.525Z,28.61
2023-08-15T09:26:37.157Z,28.80
2023-08-15T09:29:39.652Z,28.92
2023-08-15T09:32:44.021Z,28.88
2023-08-15T09:35:58.016Z,28.99
2023-08-15T09:39:01.439Z,29.02
2023-08-15T09:42:05.211Z,28.79
2023-08-15T09:45:09.169Z,29.11
2023-08-15T09:48:12.665Z,29.22
2023-08-15T09:51:17.692Z,29.25
2023-08-15T09:54:20.206Z,29.43
2023-08-15T09:57:23.040Z,29.53
2023-08-15T10:00:25.854Z,29.45
2023-08-15T10:03:40.094Z,29.57
2023-08-15T10:06:44.686Z,29.74
2023-08-15T10:09:48.211Z,29.84
2023-08-15T10:12:52.367Z,29.88
2023-08-15T10:15:56.000Z,30.01
2023-08-15T14:48:24.525Z,40.23
2023-08-15T14:51:27.015Z,40.79
2023-08-15T14:54:29.439Z,40.64
2023-08-15T14:57:31.955Z,41.03
2023-08-15T15:00:34.536Z,40.40
2023-08-15T15:03:37.212Z,40.62
2023-08-15T15:06:39.817Z,41.14
2023-08-15T15:09:42.378Z,40.38
2023-08-15T15:12:46.081Z,39.89
2023-08-15T15:15:54.320Z,40.55
2023-08-15T15:18:57.373Z,40.09
2023-08-15T15:22:00.682Z,39.37
2023-08-15T15:25:03.412Z,39.27
2023-08-15T15:28:06.218Z,38.56
2023-08-15T15:31:08.768Z,38.30
2023-08-15T15:34:11.443Z,39.21
2023-08-15T15:37:14.257Z,38.55
2023-08-15T15:40:17.005Z,37.59
2023-08-15T15:43:21.577Z,37.83
2023-08-15T15:46:24.799Z,38.11
2023-08-15T15:49:27.451Z,37.33
2023-08-15T15:52:30.026Z,36.69
2023-08-15T15:55:32.632Z,36.01
2023-08-15T15:58:35.077Z,35.56
2023-08-15T16:01:37.729Z,35.18
2023-08-15T16:04:40.787Z,34.55
2023-08-15T16:07:43.349Z,34.39
2023-08-15T16:10:45.810Z,34.01
2023-08-15T16:13:48.302Z,33.76
2023-08-15T16:16:50.845Z,33.57
2023-08-15T16:19:53.299Z,33.32
2023-08-15T16:22:55.894Z,33.27
2023-08-15T16:25:58.417Z,33.05
2023-08-15T16:29:00.940Z,32.94
2023-08-15T16:32:04.186Z,32.62
2023-08-15T16:35:07.223Z,32.26
2023-08-15T16:38:10.450Z,31.94
2023-08-15T16:41:13.108Z,31.77
2023-08-15T16:44:15.790Z,31.56
2023-08-15T16:47:18.328Z,31.43
2023-08-15T16:50:20.951Z,31.41
2023-08-15T16:53:23.477Z,31.33
2023-08-15T16:56:25.970Z,31.22
2023-08-15T16:59:28.444Z,31.03
2023-08-15T17:02:30.981Z,30.90
2023-08-15T17:05:33.578Z,30.81
2023-08-15T17:08:36.176Z,30.76
2023-08-15T17:11:40.382Z,30.78
2023-08-15T17:14:43.012Z,30.68
2023-08-15T17:17:45.663Z,30.54
2023-08-15T17:20:48.257Z,30.36
2023-08-15T17:23:50.739Z,30.21
2023-08-15T17:26:53.302Z,30.11
2023-08-15T17:29:56.580Z,30.00
2023-08-15T17:32:59.094Z,29.78
2023-08-15T17:36:01.661Z,29.56
2023-08-15T17:39:04.597Z,29.43
2023-08-15T17:42:07.130Z,29.44
2023-08-15T17:45:10.284Z,29.42
2023-08-15T17:48:12.794Z,29.36
2023-08-15T17:51:15.309Z,29.26
2023-08-15T17:54:17.948Z,29.16
2023-08-15T17:57:20.448Z,29.01
2023-08-15T18:00:23.395Z,28.98
2023-08-15T18:03:26.076Z,28.96
2023-08-15T18:06:29.423Z,28.86
2023-08-15T18:09:32.099Z,28.78
2023-08-15T18:12:34.983Z,28.63
2023-08-15T18:15:38.030Z,28.56
2023-08-15T18:18:40.914Z,28.38
2023-08-15T18:21:43.401Z,28.30
2023-08-15T18:24:45.863Z,28.16
2023-08-15T18:27:48.392Z,28.02
2023-08-15T18:30:51.020Z,27.88
2023-08-15T18:33:53.602Z,27.74
2023-08-15T18:36:56.088Z,27.57
2023-08-15T18:39:58.686Z,27.45
2023-08-15T18:43:01.272Z,27.43
2023-08-15T18:46:04.763Z,27.40
2023-08-15T18:49:07.685Z,27.35
2023-08-15T18:52:10.133Z,27.38
2023-08-15T18:55:12.928Z,27.32
2023-08-15T18:58:15.715Z,27.25
2023-08-15T19:01:18.271Z,27.17
2023-08-15T19:04:20.829Z,27.08
2023-08-15T19:07:23.357Z,26.94
2023-08-15T19:10:26.272Z,26.81
2023-08-15T19:13:28.793Z,26.64
2023-08-15T19:16:31.287Z,26.49
2023-08-15T19:19:34.033Z,26.39
2023-08-15T19:22:36.962Z,26.29
2023-08-15T19:25:39.843Z,26.24
2023-08-15T19:28:42.453Z,26.16
2023-08-15T19:31:45.103Z,26.07
2023-08-15T19:34:49.239Z,26.00
2023-08-15T19:37:51.810Z,25.91
2023-08-15T19:40:54.273Z,25.83
2023-08-15T19:43:59.504Z,25.83
2023-08-15T19:47:02.616Z,25.57
2023-08-15T19:50:06.431Z,25.56
2023-08-15T19:53:09.110Z,25.55
2023-08-15T19:56:11.652Z,25.35
2023-08-15T19:59:14.320Z,25.24
2023-08-15T20:02:21.563Z,25.15
2023-08-15T20:05:24.304Z,25.11
2023-08-15T20:08:26.795Z,25.04
2023-08-15T20:11:29.325Z,24.92
2023-08-15T20:14:31.750Z,24.78
2023-08-15T20:17:34.505Z,24.66
2023-08-15T20:20:37.038Z,24.53
2023-08-15T20:23:39.492Z,24.50
2023-08-15T20:26:42.039Z,24.45
2023-08-15T20:29:45.210Z,24.44
2023-08-15T20:32:47.676Z,24.43
2023-08-15T20:35:50.486Z,24.44
2023-08-15T20:38:53.513Z,24.47
2023-08-15T20:41:55.940Z,24.47
2023-08-15T20:44:58.535Z,24.52
2023-08-15T20:48:01.255Z,24.44
2023-08-15T20:51:04.164Z,24.42
2023-08-15T20:54:06.723Z,24.38
2023-08-15T20:57:09.238Z,24.29
2023-08-15T21:00:12.276Z,24.25
2023-08-15T21:03:14.911Z,24.24
2023-08-15T21:06:17.550Z,24.21
2023-08-15T21:09:20.545Z,24.22
2023-08-15T21:12:23.175Z,24.22
2023-08-15T21:15:25.956Z,24.14
2023-08-15T21:18:28.454Z,24.09
2023-08-15T21:21:30.978Z,24.04
2023-08-15T21:24:33.519Z,24.02
2023-08-15T21:27:36.415Z,23.93
2023-08-15T21:30:39.016Z,24.02
2023-08-15T21:33:41.500Z,23.98
2023-08-15T21:36:44.020Z,23.94
2023-08-15T21:39:46.595Z,23.90
2023-08-15T21:42:49.105Z,23.76
2023-08-15T21:45:51.625Z,23.72
2023-08-15T21:48:54.077Z,23.61
2023-08-15T21:51:56.576Z,23.55
2023-08-15T21:54:59.223Z,23.47
2023-08-15T21:58:01.739Z,23.30
2023-08-15T22:01:04.356Z,23.26
2023-08-15T22:04:06.849Z,23.23
2023-08-15T22:07:09.321Z,23.18
2023-08-15T22:10:12.360Z,23.10
2023-08-15T22:13:15.218Z,23.05
2023-08-15T22:16:17.779Z,23.04
2023-08-15T22:19:20.467Z,23.13
2023-08-15T22:22:23.104Z,23.17
2023-08-15T22:25:25.762Z,23.18
2023-08-15T22:28:28.273Z,23.18
2023-08-15T22:31:30.883Z,23.23
2023-08-15T22:34:33.372Z,23.32
2023-08-15T22:37:35.849Z,23.32
2023-08-15T22:40:38.435Z,23.29
2023-08-15T22:43:40.923Z,23.23
2023-08-15T22:46:43.388Z,23.23
2023-08-15T22:49:45.922Z,23.25
2023-08-15T22:52:48.463Z,23.31
2023-08-15T22:55:50.972Z,23.32
2023-08-15T22:58:54.314Z,23.34
2023-08-15T23:01:56.883Z,23.32
2023-08-15T23:04:59.406Z,23.41
2023-08-15T23:08:01.912Z,23.41
2023-08-15T23:11:04.511Z,23.40
2023-08-15T23:14:07.130Z,23.46
2023-08-15T23:17:09.656Z,23.42
2023-08-15T23:20:13.106Z,23.38
2023-08-15T23:23:15.599Z,23.39
2023-08-15T23:26:18.125Z,23.33
2023-08-15T23:29:20.743Z,23.27
2023-08-15T23:32:23.191Z,23.17
2023-08-15T23:35:25.652Z,23.02
2023-08-15T23:38:28.177Z,22.88
2023-08-15T23:41:30.774Z,22.80
2023-08-15T23:44:33.288Z,22.70
2023-08-15T23:47:35.820Z,22.63
2023-08-15T23:50:38.313Z,22.52
2023-08-15T23:53:40.848Z,22.43
2023-08-15T23:56:43.381Z,22.32
2023-08-15T23:59:45.879Z,22.25
